createdAt,value
2023-05-10T00:00:45.158Z,100292.80
2023-05-10T00:05:52.121Z,100286.35
2023-05-10T00:10:58.959Z,100280.02
2023-05-10T00:16:06.536Z,100281.71
2023-05-10T00:21:13.573Z,100278.08
2023-05-10T00:26:20.990Z,100276.88
2023-05-10T00:31:29.949Z,100275.15
2023-05-10T00:36:38.014Z,100275.83
2023-05-10T00:41:44.929Z,100275.96
2023-05-10T00:46:53.117Z,100272.67
2023-05-10T00:52:00.463Z,100268.35
2023-05-10T00:57:07.578Z,100262.13
2023-05-10T01:02:15.398Z,100262.42
2023-05-10T01:07:22.469Z,100260.83
2023-05-10T01:12:29.821Z,100260.55
2023-05-10T01:17:37.997Z,100260.80
2023-05-10T01:23:05.852Z,100255.27
2023-05-10T01:28:41.204Z,100253.30
2023-05-10T01:33:54.317Z,100252.01
2023-05-10T01:39:07.692Z,100254.97
2023-05-10T01:44:22.695Z,100254.31
2023-05-10T01:49:34.576Z,100254.85
2023-05-10T01:54:47.033Z,100254.40
2023-05-10T01:59:55.859Z,100255.63
2023-05-10T02:05:04.606Z,100250.08
2023-05-10T02:10:13.918Z,100248.27
2023-05-10T02:15:25.698Z,100241.52
2023-05-10T02:20:34.545Z,100242.25
2023-05-10T02:25:42.448Z,100237.18
2023-05-10T02:30:51.227Z,100231.61
2023-05-10T02:35:58.926Z,100231.13
2023-05-10T02:41:10.317Z,100233.36
2023-05-10T02:46:20.245Z,100238.15
2023-05-10T02:51:30.636Z,100231.02
2023-05-10T02:56:42.856Z,100228.65
2023-05-10T03:01:49.919Z,100227.13
2023-05-10T03:06:57.027Z,100232.40
2023-05-10T03:12:13.862Z,100235.10
2023-05-10T03:17:31.495Z,100232.30
2023-05-10T03:22:45.170Z,100232.90
2023-05-10T03:27:56.506Z,100228.88
2023-05-10T03:33:09.175Z,100230.50
2023-05-10T03:38:19.228Z,100232.45
2023-05-10T03:43:26.840Z,100226.91
2023-05-10T03:48:34.509Z,100225.86
2023-05-10T03:53:41.488Z,100224.73
2023-05-10T03:58:48.461Z,100222.52
2023-05-10T04:03:55.524Z,100219.85
2023-05-10T04:09:05.249Z,100220.23
2023-05-10T04:14:12.341Z,100220.46
2023-05-10T04:19:19.444Z,100224.06
2023-05-10T04:24:27.277Z,100220.15
2023-05-10T04:29:34.293Z,100214.85
2023-05-10T04:34:41.359Z,100216.83
2023-05-10T04:39:48.389Z,100214.05
2023-05-10T04:44:55.369Z,100211.77
2023-05-10T04:50:02.720Z,100214.52
2023-05-10T04:55:11.139Z,100215.91
2023-05-10T05:00:19.652Z,100222.23
2023-05-10T05:05:26.817Z,100218.56
2023-05-10T05:10:33.763Z,100214.73
2023-05-10T05:15:40.922Z,100213.17
2023-05-10T05:20:47.868Z,100211.29
2023-05-10T05:25:55.476Z,100211.50
2023-05-10T05:31:02.493Z,100200.53
2023-05-10T05:36:10.192Z,100196.30
2023-05-10T05:41:17.033Z,100200.41
2023-05-10T05:46:24.091Z,100195.58
2023-05-10T05:51:31.122Z,100200.88
2023-05-10T05:56:39.013Z,100202.09
2023-05-10T06:01:46.461Z,100197.49
2023-05-10T06:06:53.541Z,100194.80
2023-05-10T06:12:00.731Z,100197.27
2023-05-10T06:17:07.982Z,100196.06
2023-05-10T06:22:15.466Z,100198.16
2023-05-10T06:27:22.759Z,100201.71
2023-05-10T06:32:29.815Z,100202.95
2023-05-10T06:37:36.739Z,100199.94
2023-05-10T06:42:43.771Z,100190.31
2023-05-10T06:47:50.880Z,100186.02
2023-05-10T06:52:57.840Z,100186.38
2023-05-10T06:58:04.652Z,100185.39
2023-05-10T07:03:11.940Z,100188.00
2023-05-10T07:08:19.179Z,100184.95
2023-05-10T07:13:26.211Z,100178.67
2023-05-10T07:18:33.230Z,100176.14
2023-05-10T07:23:40.521Z,100176.52
2023-05-10T07:28:48.236Z,100170.34
2023-05-10T07:33:55.215Z,100164.27
2023-05-10T07:39:02.157Z,100162.02
2023-05-10T07:44:09.608Z,100158.64
2023-05-10T07:49:16.520Z,100151.29
2023-05-10T07:54:23.396Z,100149.50
2023-05-10T07:59:31.048Z,100147.63
2023-05-10T08:04:38.192Z,100141.96
2023-05-10T08:09:45.169Z,100138.86
2023-05-10T08:14:52.050Z,100143.48
2023-05-10T08:19:58.997Z,100136.75
2023-05-10T08:25:06.405Z,100139.02
2023-05-10T08:30:14.562Z,100133.83
2023-05-10T08:35:21.549Z,100134.56
2023-05-10T08:40:29.693Z,100135.81
2023-05-10T08:45:39.614Z,100130.55
2023-05-10T08:50:47.240Z,100125.63
2023-05-10T08:55:54.445Z,100127.54
2023-05-10T09:01:01.923Z,100123.66
2023-05-10T09:06:09.430Z,100126.10
2023-05-10T09:11:16.942Z,100121.73
2023-05-10T09:16:24.465Z,100117.85
2023-05-10T09:21:32.240Z,100120.62
2023-05-10T09:26:47.580Z,100120.71
2023-05-10T09:31:56.332Z,100124.22
2023-05-10T09:37:05.729Z,100126.05
2023-05-10T09:42:13.167Z,100134.11
2023-05-10T09:47:22.289Z,100127.63
2023-05-10T09:52:29.187Z,100129.82
2023-05-10T09:57:36.186Z,100126.74
2023-05-10T10:02:44.021Z,100121.17
2023-05-10T10:07:51.567Z,100112.27
2023-05-10T10:12:58.856Z,100110.53
2023-05-10T10:18:07.332Z,100107.00
2023-05-10T10:23:17.920Z,100099.66
2023-05-10T10:28:37.854Z,100091.86
2023-05-10T10:34:02.147Z,100084.23
2023-05-10T10:39:14.409Z,100089.69
2023-05-10T10:44:45.112Z,100088.85
2023-05-10T10:50:04.541Z,100086.79
2023-05-10T10:55:13.548Z,100081.13
2023-05-10T11:00:32.046Z,100077.33
2023-05-10T11:05:44.837Z,100079.19
2023-05-10T11:11:11.280Z,100080.02
2023-05-10T11:16:24.676Z,100078.80
2023-05-10T11:21:32.543Z,100069.70
2023-05-10T11:26:40.160Z,100067.77
2023-05-10T11:31:48.684Z,100067.34
2023-05-10T11:36:57.073Z,100063.21
2023-05-10T11:42:04.213Z,100066.92
2023-05-10T11:47:11.136Z,100057.76
2023-05-10T11:52:20.797Z,100062.05
2023-05-10T11:57:30.207Z,100055.09
2023-05-10T12:02:37.457Z,100048.65
2023-05-10T12:07:44.415Z,100056.44
2023-05-10T12:12:54.108Z,100052.43
2023-05-10T12:18:02.282Z,100056.78
2023-05-10T12:23:13.523Z,100056.92
2023-05-10T12:33:50.624Z,100051.53
2023-05-10T12:39:05.932Z,100049.50
2023-05-10T12:44:12.829Z,100051.63
2023-05-10T12:49:20.774Z,100049.59
2023-05-10T12:54:27.792Z,100045.39
2023-05-10T12:59:36.068Z,100040.84
2023-05-10T13:04:44.969Z,100040.92
2023-05-10T13:09:52.011Z,100038.52
2023-05-10T13:14:58.986Z,100037.05
2023-05-10T13:20:06.816Z,100036.06
2023-05-10T13:25:14.310Z,100034.11
2023-05-10T13:30:21.668Z,100022.11
2023-05-10T13:35:28.877Z,100023.07
2023-05-10T13:40:37.029Z,100023.13
2023-05-10T13:45:44.599Z,100023.56
2023-05-10T13:50:51.471Z,100025.86
2023-05-10T13:55:58.308Z,100011.73
2023-05-10T14:01:05.870Z,100010.75
2023-05-10T14:06:12.879Z,100010.03
2023-05-10T14:11:19.729Z,100004.75
2023-05-10T14:16:27.521Z,100006.95
2023-05-10T14:21:34.353Z,100008.18
2023-05-10T14:26:43.776Z,100000.27
2023-05-10T14:31:50.919Z,99994.13
2023-05-10T14:36:58.353Z,99994.65
2023-05-10T14:42:05.727Z,99998.25
2023-05-10T14:47:12.853Z,99993.30
2023-05-10T14:52:21.383Z,99996.77
2023-05-10T14:57:30.543Z,99996.88
2023-05-10T15:02:37.713Z,99997.42
2023-05-10T15:07:45.172Z,99997.24
2023-05-10T15:12:51.998Z,99995.63
2023-05-10T15:17:58.991Z,99998.16
2023-05-10T15:23:06.052Z,99995.98
2023-05-10T15:28:12.839Z,99996.11
2023-05-10T15:33:19.973Z,99990.36
2023-05-10T15:38:26.959Z,99992.36
2023-05-10T15:43:33.969Z,99999.53
2023-05-10T15:48:41.248Z,100007.37
2023-05-10T15:54:05.425Z,100002.09
2023-05-10T15:59:13.430Z,100001.07
2023-05-10T16:04:21.030Z,100001.48
2023-05-10T16:09:28.253Z,100003.22
2023-05-10T16:14:35.693Z,100009.30
2023-05-10T16:19:42.777Z,100010.55
2023-05-10T16:24:49.844Z,100006.33
2023-05-10T16:29:56.779Z,100010.60
2023-05-10T16:35:04.248Z,100017.38
2023-05-10T16:40:12.624Z,100021.83
2023-05-10T16:45:19.843Z,100024.16
2023-05-10T16:50:27.178Z,100023.85
2023-05-10T16:55:34.281Z,100027.09
2023-05-10T17:00:41.399Z,100030.73
2023-05-10T17:05:48.658Z,100033.98
2023-05-10T17:10:56.458Z,100038.54
2023-05-10T17:16:05.046Z,100040.11
2023-05-10T17:21:12.620Z,100041.69
2023-05-10T17:26:19.615Z,100052.21
2023-05-10T17:31:26.541Z,100053.47
2023-05-10T17:36:33.540Z,100056.76
2023-05-10T17:41:40.433Z,100064.90
2023-05-10T17:46:50.066Z,100063.63
2023-05-10T17:51:57.151Z,100068.09
2023-05-10T17:57:04.271Z,100071.14
2023-05-10T18:02:14.369Z,100077.52
2023-05-10T18:07:23.790Z,100076.29
2023-05-10T18:12:31.194Z,100082.98
2023-05-10T18:17:38.113Z,100090.68
2023-05-10T18:22:45.084Z,100091.89
2023-05-10T18:27:52.110Z,100094.11
2023-05-10T18:32:59.069Z,100098.88
2023-05-10T18:38:06.078Z,100101.58
2023-05-10T18:43:12.876Z,100104.71
2023-05-10T18:48:19.984Z,100110.99
2023-05-10T18:53:27.037Z,100116.86
2023-05-10T18:58:35.676Z,100123.51
2023-05-10T19:03:42.574Z,100129.25
2023-05-10T19:08:49.608Z,100130.09
2023-05-10T19:13:56.492Z,100131.23
2023-05-10T19:19:03.581Z,100141.20
2023-05-10T19:24:12.440Z,100144.65
2023-05-10T19:29:19.394Z,100150.90
2023-05-10T19:34:26.557Z,100157.88
2023-05-10T19:39:33.739Z,100161.73
2023-05-10T19:44:40.945Z,100157.43
2023-05-10T19:49:47.931Z,100160.85
2023-05-10T19:54:54.869Z,100163.61
2023-05-10T20:00:01.980Z,100167.35
2023-05-10T20:05:18.877Z,100174.36
2023-05-10T20:10:27.144Z,100181.41
2023-05-10T20:15:34.384Z,100190.58
2023-05-10T20:20:41.404Z,100193.02
2023-05-10T20:25:48.362Z,100197.85
2023-05-10T20:30:56.882Z,100199.52
2023-05-10T20:36:03.945Z,100202.79
2023-05-10T20:41:10.835Z,100206.41
2023-05-10T20:46:17.962Z,100211.14
2023-05-10T20:51:25.047Z,100206.83
2023-05-10T20:56:32.050Z,100203.91
2023-05-10T21:01:39.021Z,100205.19
2023-05-10T21:06:46.588Z,100204.34
2023-05-10T21:11:53.812Z,100203.90
2023-05-10T21:17:00.749Z,100207.55
2023-05-10T21:22:07.815Z,100206.60
2023-05-10T21:27:15.066Z,100208.30
2023-05-10T21:32:23.113Z,100209.83
2023-05-10T21:37:30.416Z,100210.67
2023-05-10T21:42:37.384Z,100213.08
2023-05-10T21:47:44.504Z,100217.30
2023-05-10T21:52:51.366Z,100222.27
2023-05-10T21:57:59.495Z,100220.66
2023-05-10T22:03:06.551Z,100222.59
2023-05-10T22:08:13.803Z,100225.23
2023-05-10T22:13:20.778Z,100228.77
2023-05-10T22:18:27.850Z,100229.81
2023-05-10T22:23:34.822Z,100229.29
2023-05-10T22:28:41.786Z,100227.10
2023-05-10T22:33:48.858Z,100229.31
2023-05-10T22:38:55.765Z,100227.64
2023-05-10T22:44:02.849Z,100231.63
2023-05-10T22:49:09.804Z,100233.42
2023-05-10T22:54:16.665Z,100239.71
2023-05-10T22:59:24.573Z,100241.90
2023-05-10T23:04:31.601Z,100243.95
2023-05-10T23:09:38.589Z,100242.65
2023-05-10T23:14:46.694Z,100237.70
2023-05-10T23:19:53.608Z,100242.56
2023-05-10T23:25:00.779Z,100244.73
2023-05-10T23:30:09.644Z,100249.98
2023-05-10T23:35:16.618Z,100250.39
2023-05-10T23:40:23.414Z,100254.19
2023-05-10T23:45:30.441Z,100258.30
2023-05-10T23:50:38.185Z,100257.36
2023-05-10T23:55:45.600Z,100259.70
